Time;durP1;ratioP1;P1;durP2;ratioP2;P2;SDS_P1;SDS_P2;PMS_P1;PMS_P2;Temp;Humidity;BMP_temperature;BMP_pressure;BME280_temperature;BME280_humidity;BME280_pressure;Samples;Min_cycle;Max_cycle;Signal;HPM_P1;HPM_P2
2022/09/30 00:01:53;;;;;;;13.10;12.10;;;8.20;99.90;;;;;;4992131;28;20200;-76
2022/09/30 00:04:22;;;;;;;15.80;14.57;;;8.20;99.90;;;;;;4991984;28;20284;-76
2022/09/30 00:06:50;;;;;;;13.43;12.33;;;8.10;99.90;;;;;;4991938;28;20235;-77
2022/09/30 00:09:18;;;;;;;13.33;12.13;;;8.20;99.90;;;;;;4991919;28;20259;-76
2022/09/30 00:11:46;;;;;;;12.90;11.90;;;8.20;99.90;;;;;;4991028;28;20260;-76
2022/09/30 00:14:16;;;;;;;13.93;12.83;;;8.10;99.90;;;;;;4992000;28;20200;-76
2022/09/30 00:16:43;;;;;;;13.57;12.57;;;8.10;99.90;;;;;;4991794;28;20220;-76
2022/09/30 00:19:12;;;;;;;13.17;12.17;;;8.10;99.90;;;;;;4990651;28;20258;-76
2022/09/30 00:21:39;;;;;;;13.37;12.17;;;8.00;99.90;;;;;;4991716;28;20733;-76
2022/09/30 00:24:06;;;;;;;13.03;12.03;;;8.00;99.90;;;;;;4991005;28;20283;-76
2022/09/30 00:26:34;;;;;;;13.90;12.83;;;7.90;99.90;;;;;;4991890;28;20755;-76
2022/09/30 00:29:02;;;;;;;15.50;14.40;;;7.90;99.90;;;;;;4991888;28;20438;-76
2022/09/30 00:31:31;;;;;;;14.33;13.23;;;7.80;99.90;;;;;;4982660;28;20267;-76
2022/09/30 00:34:06;;;;;;;14.43;13.33;;;7.90;99.90;;;;;;4991812;28;20200;-76
2022/09/30 00:36:37;;;;;;;14.97;13.87;;;7.90;99.90;;;;;;4983344;28;20234;-76
2022/09/30 00:39:05;;;;;;;14.43;13.30;;;7.90;99.90;;;;;;4992151;28;20588;-76
2022/09/30 00:41:32;;;;;;;15.10;13.97;;;7.90;99.90;;;;;;4993748;28;20199;-76
2022/09/30 00:44:00;;;;;;;14.97;13.87;;;8.00;99.90;;;;;;4994192;28;20207;-76
2022/09/30 00:46:35;;;;;;;13.97;12.97;;;8.00;99.90;;;;;;4993675;28;20500;-76
2022/09/30 00:49:06;;;;;;;14.57;13.50;;;8.10;99.90;;;;;;4995416;28;20661;-76
2022/09/30 00:51:38;;;;;;;12.67;11.77;;;8.10;99.90;;;;;;4987975;28;20204;-76
2022/09/30 00:54:10;;;;;;;14.77;13.43;;;8.10;99.90;;;;;;4995100;28;20200;-76
2022/09/30 00:56:40;;;;;;;13.93;12.73;;;8.10;99.90;;;;;;4995259;28;20225;-76
2022/09/30 00:59:10;;;;;;;15.03;13.80;;;8.10;99.90;;;;;;4994231;28;20204;-76
2022/09/30 01:01:39;;;;;;;14.63;13.53;;;8.20;99.90;;;;;;4995075;28;20584;-76
2022/09/30 01:04:12;;;;;;;14.03;13.03;;;8.20;99.90;;;;;;4995221;28;20666;-76
2022/09/30 01:06:40;;;;;;;13.40;12.50;;;8.20;99.90;;;;;;4995002;28;20824;-76
2022/09/30 01:09:08;;;;;;;13.13;12.23;;;8.30;99.90;;;;;;4993850;28;20201;-76
2022/09/30 01:11:35;;;;;;;13.10;12.10;;;8.20;99.90;;;;;;4993372;28;20665;-76
2022/09/30 01:14:04;;;;;;;13.10;12.20;;;8.30;99.90;;;;;;4995007;28;20200;-76
2022/09/30 01:16:55;;;;;;;12.77;11.87;;;8.30;99.90;;;;;;5002299;28;20439;-76
2022/09/30 01:19:39;;;;;;;14.00;12.90;;;8.20;99.90;;;;;;4994581;28;20299;-75
2022/09/30 01:22:32;;;;;;;14.13;13.03;;;8.30;99.90;;;;;;4993596;28;20436;-76
2022/09/30 01:25:26;;;;;;;13.87;12.87;;;8.30;99.90;;;;;;4988379;28;20209;-76
2022/09/30 01:28:26;;;;;;;13.53;12.57;;;8.40;99.90;;;;;;5005060;28;20220;-76
2022/09/30 01:31:13;;;;;;;13.77;12.77;;;8.30;99.90;;;;;;4957689;28;20213;-76
2022/09/30 01:33:49;;;;;;;13.97;12.93;;;8.30;99.90;;;;;;4993232;28;20193;-76
2022/09/30 01:36:35;;;;;;;14.60;13.30;;;8.30;99.90;;;;;;4993182;28;20225;-76
2022/09/30 01:39:12;;;;;;;13.97;12.83;;;8.30;99.90;;;;;;4989858;28;20233;-76
2022/09/30 01:41:47;;;;;;;13.70;12.70;;;8.30;99.90;;;;;;4992883;28;20630;-76
2022/09/30 01:44:19;;;;;;;14.53;12.63;;;8.30;99.90;;;;;;4993073;28;20212;-76
2022/09/30 01:46:54;;;;;;;14.03;13.03;;;8.40;99.90;;;;;;4992804;28;20229;-76
2022/09/30 01:49:30;;;;;;;14.13;13.03;;;8.30;99.90;;;;;;4994186;28;20561;-76
2022/09/30 01:52:03;;;;;;;13.10;12.20;;;8.30;99.90;;;;;;4994227;28;20211;-76
2022/09/30 01:54:35;;;;;;;14.27;13.00;;;8.30;99.90;;;;;;5001548;28;20246;-76
2022/09/30 01:57:09;;;;;;;13.63;12.53;;;8.30;99.90;;;;;;4993945;28;20212;-76
2022/09/30 01:59:41;;;;;;;13.73;12.63;;;8.30;99.90;;;;;;4985694;28;20286;-76
2022/09/30 02:02:16;;;;;;;13.67;12.57;;;8.30;99.90;;;;;;4992517;28;20271;-76
2022/09/30 02:04:48;;;;;;;13.13;12.23;;;8.20;99.90;;;;;;4993777;28;20251;-76
2022/09/30 02:07:20;;;;;;;13.70;12.63;;;8.10;99.90;;;;;;4992380;28;20229;-76
2022/09/30 02:09:54;;;;;;;14.60;13.30;;;8.10;99.90;;;;;;4992027;28;20201;-76
2022/09/30 02:12:26;;;;;;;14.30;13.27;;;8.10;99.90;;;;;;4993486;28;20207;-76
2022/09/30 02:14:59;;;;;;;14.80;13.70;;;8.10;99.90;;;;;;4992178;28;20208;-76
2022/09/30 02:17:32;;;;;;;15.17;13.83;;;8.10;99.90;;;;;;4992072;28;20213;-76
2022/09/30 02:20:05;;;;;;;14.57;13.30;;;8.10;99.90;;;;;;4992002;28;20200;-76
2022/09/30 02:22:43;;;;;;;14.73;13.63;;;8.10;99.90;;;;;;4985979;28;20232;-76
2022/09/30 02:25:19;;;;;;;14.03;13.03;;;8.10;99.90;;;;;;4992114;28;20200;-76
2022/09/30 02:27:50;;;;;;;14.10;13.10;;;8.20;99.90;;;;;;4987927;28;20208;-76
2022/09/30 02:30:18;;;;;;;13.67;12.77;;;8.10;99.90;;;;;;4992990;28;20205;-76
2022/09/30 02:32:50;;;;;;;13.57;12.47;;;8.10;99.90;;;;;;4993092;28;20263;-76
2022/09/30 02:35:23;;;;;;;13.17;12.17;;;8.10;99.90;;;;;;4993276;28;20576;-76
2022/09/30 02:37:53;;;;;;;13.20;12.30;;;8.10;99.90;;;;;;4993125;28;20236;-76
2022/09/30 02:40:24;;;;;;;13.57;12.57;;;8.20;99.90;;;;;;4991737;28;20578;-76
2022/09/30 02:42:52;;;;;;;12.60;11.70;;;8.20;99.90;;;;;;4992204;28;20675;-76
2022/09/30 02:45:21;;;;;;;15.07;13.90;;;8.20;99.90;;;;;;4991580;28;20217;-77
2022/09/30 02:48:04;;;;;;;13.73;12.60;;;8.30;99.90;;;;;;4991484;28;20574;-76
2022/09/30 02:50:35;;;;;;;13.70;12.73;;;8.20;99.90;;;;;;4984373;28;20204;-81
2022/09/30 02:53:16;;;;;;;13.30;12.40;;;8.20;99.90;;;;;;4990077;28;20200;-76
2022/09/30 02:55:54;;;;;;;13.00;12.10;;;8.20;99.90;;;;;;4995692;28;20573;-76
2022/09/30 02:58:24;;;;;;;13.43;12.43;;;8.20;99.90;;;;;;4991798;28;20607;-76
2022/09/30 03:00:53;;;;;;;13.30;12.40;;;8.20;99.90;;;;;;4983231;28;20269;-77
2022/09/30 03:03:25;;;;;;;12.57;11.77;;;8.20;99.90;;;;;;4992247;28;20258;-77
2022/09/30 03:05:53;;;;;;;13.33;12.43;;;8.10;99.90;;;;;;4992408;28;20210;-77
2022/09/30 03:08:20;;;;;;;14.13;13.13;;;8.10;99.90;;;;;;4992614;28;20191;-76
2022/09/30 03:10:50;;;;;;;15.00;13.70;;;8.10;99.90;;;;;;4990641;28;20208;-77
2022/09/30 03:13:51;;;;;;;13.70;12.60;;;8.20;99.90;;;;;;4991097;28;20598;-77
2022/09/30 03:16:26;;;;;;;14.07;13.07;;;8.20;99.90;;;;;;4990566;28;20219;-76
2022/09/30 03:19:17;;;;;;;14.20;13.20;;;8.20;99.90;;;;;;4981719;28;20247;-76
2022/09/30 03:22:00;;;;;;;15.00;13.80;;;8.10;99.90;;;;;;5001474;28;20194;-77
2022/09/30 03:24:50;;;;;;;13.93;12.97;;;8.10;99.90;;;;;;4990954;28;20223;-77
2022/09/30 03:27:26;;;;;;;15.10;14.07;;;8.10;99.90;;;;;;4988945;28;20216;-76
2022/09/30 03:30:01;;;;;;;15.33;14.23;;;8.10;99.90;;;;;;4992316;28;20197;-77
2022/09/30 03:32:43;;;;;;;13.80;12.83;;;8.00;99.90;;;;;;4984164;28;20193;-76
2022/09/30 03:35:20;;;;;;;13.60;12.70;;;8.10;99.90;;;;;;4991565;28;20212;-76
2022/09/30 03:37:56;;;;;;;14.90;13.80;;;8.10;99.90;;;;;;4987135;28;20267;-76
2022/09/30 03:40:30;;;;;;;15.00;13.83;;;8.00;99.90;;;;;;4992120;28;20193;-77
2022/09/30 03:43:03;;;;;;;13.73;12.83;;;8.00;99.90;;;;;;4992252;28;20197;-77
2022/09/30 03:45:35;;;;;;;14.33;13.33;;;7.90;99.90;;;;;;4975506;28;20228;-77
2022/09/30 03:48:06;;;;;;;14.70;13.70;;;7.90;99.90;;;;;;4992131;28;20224;-76
2022/09/30 03:50:36;;;;;;;14.70;13.70;;;8.00;99.90;;;;;;4990821;28;20205;-76
2022/09/30 03:53:08;;;;;;;15.00;13.90;;;8.00;99.90;;;;;;4990939;28;20208;-76
2022/09/30 03:55:46;;;;;;;15.13;14.13;;;8.00;99.90;;;;;;4992298;28;20527;-76
2022/09/30 03:58:15;;;;;;;15.03;13.93;;;8.00;99.90;;;;;;4991698;28;20211;-76
2022/09/30 04:00:48;;;;;;;15.13;14.13;;;8.10;99.90;;;;;;4990338;28;20201;-76
2022/09/30 04:03:15;;;;;;;15.73;14.53;;;8.20;99.90;;;;;;4990963;28;20255;-76
2022/09/30 04:05:43;;;;;;;15.30;14.20;;;8.20;99.90;;;;;;4991985;28;20551;-77
2022/09/30 04:08:10;;;;;;;15.77;14.60;;;8.20;99.90;;;;;;4990618;28;20219;-76
2022/09/30 04:10:39;;;;;;;15.23;14.17;;;8.20;99.90;;;;;;4993206;28;20212;-76
2022/09/30 04:13:06;;;;;;;15.37;14.27;;;8.20;99.90;;;;;;4990699;28;20256;-76
2022/09/30 04:15:33;;;;;;;15.70;14.53;;;8.10;99.90;;;;;;4993848;28;20202;-76
2022/09/30 04:18:00;;;;;;;15.20;14.20;;;8.10;99.90;;;;;;4994528;28;20698;-76
2022/09/30 04:20:27;;;;;;;15.27;14.10;;;8.10;99.90;;;;;;4995591;28;20201;-76
2022/09/30 04:22:58;;;;;;;14.57;13.57;;;8.00;99.90;;;;;;4995685;28;20204;-76
2022/09/30 04:25:25;;;;;;;14.70;13.70;;;7.90;99.90;;;;;;4994348;28;20255;-76
2022/09/30 04:27:52;;;;;;;15.27;14.23;;;7.90;99.90;;;;;;4995467;28;20269;-76
2022/09/30 04:30:19;;;;;;;15.77;14.47;;;7.90;99.90;;;;;;4995360;28;20207;-76
2022/09/30 04:32:46;;;;;;;15.13;13.90;;;7.90;99.90;;;;;;4995442;28;20200;-76
2022/09/30 04:35:13;;;;;;;15.30;14.17;;;7.90;99.90;;;;;;4995448;28;20716;-76
2022/09/30 04:37:44;;;;;;;14.20;13.30;;;7.90;99.90;;;;;;4995283;28;20262;-76
2022/09/30 04:40:13;;;;;;;14.80;13.70;;;7.90;99.90;;;;;;4995143;28;20200;-76
2022/09/30 04:42:41;;;;;;;15.03;14.03;;;7.90;99.90;;;;;;4995272;28;20200;-76
2022/09/30 04:45:12;;;;;;;14.67;13.57;;;7.80;99.90;;;;;;4995278;28;20244;-76
2022/09/30 04:47:39;;;;;;;15.80;14.63;;;7.80;99.90;;;;;;4993715;28;20228;-76
2022/09/30 04:50:07;;;;;;;15.20;14.13;;;7.80;99.90;;;;;;4993659;28;20323;-76
2022/09/30 04:52:34;;;;;;;15.77;14.63;;;7.80;99.90;;;;;;4995080;28;20289;-76
2022/09/30 04:55:00;;;;;;;16.77;15.47;;;7.80;99.90;;;;;;4994171;28;20207;-76
2022/09/30 04:57:29;;;;;;;15.50;14.40;;;7.80;99.90;;;;;;4993646;28;20274;-76
2022/09/30 04:59:56;;;;;;;15.00;13.90;;;7.80;99.90;;;;;;4993300;28;20209;-76
2022/09/30 05:02:23;;;;;;;16.87;15.60;;;7.80;99.90;;;;;;4993634;28;20248;-76
2022/09/30 05:04:49;;;;;;;15.83;14.70;;;7.80;99.90;;;;;;4994898;28;20673;-76
2022/09/30 05:07:16;;;;;;;14.80;13.80;;;7.80;99.90;;;;;;4994636;28;20230;-76
2022/09/30 05:09:43;;;;;;;16.13;14.80;;;7.80;99.90;;;;;;4993993;28;20547;-76
2022/09/30 05:12:11;;;;;;;15.97;14.80;;;7.90;99.90;;;;;;4993862;28;20674;-78
2022/09/30 05:14:39;;;;;;;16.10;14.90;;;7.90;99.90;;;;;;4994924;28;20246;-77
2022/09/30 05:17:06;;;;;;;16.10;14.90;;;7.90;99.90;;;;;;4994556;28;20235;-77
2022/09/30 05:19:33;;;;;;;15.93;14.83;;;7.80;99.90;;;;;;4993179;28;20299;-77
2022/09/30 05:21:59;;;;;;;16.20;14.67;;;7.80;99.90;;;;;;4994937;28;20199;-76
2022/09/30 05:24:28;;;;;;;15.27;14.17;;;7.80;99.90;;;;;;4993437;28;20251;-77
2022/09/30 05:26:55;;;;;;;15.33;14.23;;;7.80;99.90;;;;;;4994197;28;20232;-77
2022/09/30 05:29:22;;;;;;;15.93;14.70;;;7.70;99.90;;;;;;4993055;28;20207;-76
2022/09/30 05:31:50;;;;;;;15.47;14.27;;;7.80;99.90;;;;;;4993522;28;20208;-78
2022/09/30 05:34:17;;;;;;;15.30;14.30;;;7.70;99.90;;;;;;4993019;28;20202;-76
2022/09/30 05:36:44;;;;;;;15.13;14.00;;;7.70;99.90;;;;;;4996335;28;20223;-77
2022/09/30 05:39:11;;;;;;;14.80;13.80;;;7.70;99.90;;;;;;4992765;28;20236;-77
2022/09/30 05:41:38;;;;;;;14.77;13.73;;;7.70;99.90;;;;;;4992768;28;20203;-77
2022/09/30 05:44:07;;;;;;;14.97;13.87;;;7.70;99.90;;;;;;4993362;28;20201;-77
2022/09/30 05:46:34;;;;;;;15.67;14.53;;;7.80;99.90;;;;;;5019864;22;20228;-78
2022/09/30 05:49:03;;;;;;;14.83;13.77;;;7.70;99.90;;;;;;5032470;28;20202;-77
2022/09/30 05:51:30;;;;;;;14.63;13.60;;;7.70;99.90;;;;;;5031811;28;20203;-77
2022/09/30 05:53:56;;;;;;;14.20;13.30;;;7.80;99.90;;;;;;5044491;28;20224;-77
2022/09/30 05:56:23;;;;;;;14.43;13.43;;;7.80;99.90;;;;;;5029954;28;20197;-78
2022/09/30 05:58:50;;;;;;;14.70;13.50;;;7.80;99.90;;;;;;5058915;28;20256;-77
2022/09/30 06:01:17;;;;;;;14.70;13.70;;;7.80;99.90;;;;;;5061548;28;20213;-77
2022/09/30 06:03:46;;;;;;;14.60;13.60;;;7.90;99.90;;;;;;5062573;28;20710;-78
2022/09/30 06:06:15;;;;;;;14.57;13.57;;;7.90;99.90;;;;;;5060951;28;20205;-77
2022/09/30 06:08:43;;;;;;;14.83;13.83;;;8.00;99.90;;;;;;5051747;28;20219;-76
2022/09/30 06:11:11;;;;;;;14.30;13.40;;;8.00;99.90;;;;;;5065452;28;20236;-78
2022/09/30 06:13:39;;;;;;;13.73;12.83;;;8.10;99.90;;;;;;5060628;28;20281;-77
2022/09/30 06:16:06;;;;;;;14.47;13.30;;;8.30;99.90;;;;;;5058356;28;20683;-77
2022/09/30 06:18:33;;;;;;;15.30;14.10;;;8.40;99.90;;;;;;5052695;28;20272;-77
2022/09/30 06:21:03;;;;;;;14.70;13.60;;;8.40;99.90;;;;;;5052856;28;20195;-78
2022/09/30 06:23:33;;;;;;;13.60;12.60;;;8.50;99.90;;;;;;5053269;28;20269;-77
2022/09/30 06:26:01;;;;;;;13.90;13.00;;;8.50;99.90;;;;;;5058867;28;20257;-78
2022/09/30 06:28:28;;;;;;;14.37;13.37;;;8.50;99.90;;;;;;5057440;28;20223;-77
2022/09/30 06:30:55;;;;;;;14.20;13.10;;;8.70;99.90;;;;;;5062623;28;20191;-78
2022/09/30 06:33:22;;;;;;;13.77;12.87;;;8.80;99.90;;;;;;5062502;28;20202;-77
2022/09/30 06:35:50;;;;;;;14.47;13.47;;;9.00;99.90;;;;;;5051920;28;20211;-78
2022/09/30 06:38:18;;;;;;;14.20;13.20;;;9.10;99.90;;;;;;5057154;28;20222;-78
2022/09/30 06:40:48;;;;;;;13.70;12.70;;;9.10;99.90;;;;;;5055981;28;20198;-78
2022/09/30 06:43:15;;;;;;;13.07;12.07;;;9.10;99.90;;;;;;5059511;28;20195;-78
2022/09/30 06:45:42;;;;;;;13.43;12.53;;;9.20;99.90;;;;;;5051354;28;20203;-77
2022/09/30 06:48:09;;;;;;;14.17;13.10;;;9.20;99.90;;;;;;5055421;28;20245;-77
2022/09/30 06:50:37;;;;;;;13.53;12.63;;;9.20;99.90;;;;;;5055421;28;20205;-78
2022/09/30 06:53:06;;;;;;;13.80;12.80;;;9.40;99.90;;;;;;5062808;28;20278;-78
2022/09/30 06:55:35;;;;;;;14.27;12.87;;;9.50;99.90;;;;;;5055559;28;20192;-78
2022/09/30 06:58:03;;;;;;;14.30;13.27;;;9.50;99.90;;;;;;5053350;28;20225;-78
2022/09/30 07:00:30;;;;;;;13.40;12.50;;;9.60;99.90;;;;;;5063477;28;20723;-78
2022/09/30 07:02:57;;;;;;;13.20;12.23;;;9.80;99.90;;;;;;5061184;28;20199;-78
2022/09/30 07:05:25;;;;;;;13.87;12.97;;;9.80;99.90;;;;;;5054956;28;20601;-77
2022/09/30 07:07:52;;;;;;;12.57;11.60;;;9.90;99.90;;;;;;5054415;28;20590;-77
2022/09/30 07:10:19;;;;;;;13.13;12.23;;;10.00;99.90;;;;;;5058667;28;20191;-78
2022/09/30 07:12:49;;;;;;;13.80;12.80;;;10.00;99.90;;;;;;5057751;28;20186;-77
2022/09/30 07:15:22;;;;;;;13.57;12.67;;;10.00;99.90;;;;;;5053368;28;20200;-77
2022/09/30 07:17:51;;;;;;;13.43;12.57;;;10.10;99.90;;;;;;5065798;28;20298;-81
2022/09/30 07:20:18;;;;;;;13.73;12.83;;;10.20;99.90;;;;;;5064399;28;20222;-78
2022/09/30 07:22:45;;;;;;;14.87;13.70;;;10.30;99.90;;;;;;5069655;28;20634;-77
2022/09/30 07:25:13;;;;;;;14.43;13.27;;;10.40;99.90;;;;;;5056107;28;20805;-78
2022/09/30 07:27:40;;;;;;;13.87;12.87;;;10.50;99.90;;;;;;5054043;28;20269;-77
2022/09/30 07:30:08;;;;;;;12.50;11.67;;;10.60;99.90;;;;;;5064789;28;20244;-78
2022/09/30 07:32:37;;;;;;;12.83;12.03;;;10.80;99.90;;;;;;5063576;28;20273;-78
2022/09/30 07:35:05;;;;;;;13.20;12.40;;;10.90;99.90;;;;;;5060993;28;20241;-77
2022/09/30 07:37:34;;;;;;;12.63;11.83;;;10.90;99.90;;;;;;5065709;28;20211;-78
2022/09/30 07:40:02;;;;;;;14.00;12.80;;;11.00;99.90;;;;;;5062833;28;20639;-78
2022/09/30 07:42:30;;;;;;;13.80;12.80;;;11.00;99.90;;;;;;5057337;28;20201;-78
2022/09/30 07:44:57;;;;;;;12.10;11.30;;;11.20;99.90;;;;;;5060022;28;20278;-78
2022/09/30 07:47:23;;;;;;;11.37;10.47;;;11.20;99.90;;;;;;5054982;28;20224;-78
2022/09/30 07:49:52;;;;;;;11.57;10.67;;;11.20;99.90;;;;;;5068278;28;20191;-77
2022/09/30 07:52:19;;;;;;;13.43;12.53;;;11.40;99.90;;;;;;5067060;28;20247;-78
2022/09/30 07:54:46;;;;;;;13.00;12.00;;;11.50;99.90;;;;;;5068044;28;20198;-78
2022/09/30 07:57:13;;;;;;;11.50;10.70;;;11.70;99.90;;;;;;5069281;28;20587;-77
2022/09/30 07:59:41;;;;;;;10.87;9.87;;;11.80;99.90;;;;;;5073821;28;20274;-77
2022/09/30 08:02:13;;;;;;;11.37;10.57;;;11.90;99.90;;;;;;5072962;28;20215;-77
2022/09/30 08:04:40;;;;;;;12.77;11.67;;;12.10;99.90;;;;;;5068216;28;20224;-77
2022/09/30 08:07:08;;;;;;;11.80;10.80;;;12.10;99.90;;;;;;5050480;28;20267;-77
2022/09/30 08:09:35;;;;;;;10.67;9.97;;;12.30;99.90;;;;;;5069347;28;20195;-76
2022/09/30 08:12:04;;;;;;;8.17;7.30;;;12.40;99.90;;;;;;5071237;28;20190;-77
2022/09/30 08:14:31;;;;;;;7.60;6.93;;;12.60;99.90;;;;;;5068614;28;20233;-76
2022/09/30 08:16:59;;;;;;;7.57;6.93;;;12.70;99.90;;;;;;5075003;28;20219;-80
2022/09/30 08:19:27;;;;;;;7.00;6.40;;;12.60;99.90;;;;;;5068418;28;20238;-78
2022/09/30 08:21:55;;;;;;;7.60;6.90;;;12.60;99.90;;;;;;5068738;28;20198;-77
2022/09/30 08:24:24;;;;;;;10.70;7.37;;;12.60;99.90;;;;;;5056052;28;20206;-78
2022/09/30 08:26:51;;;;;;;7.60;6.27;;;12.60;99.90;;;;;;5058111;28;20219;-78
2022/09/30 08:29:18;;;;;;;8.70;7.90;;;12.70;99.90;;;;;;5064439;28;20671;-78
2022/09/30 08:31:45;;;;;;;7.40;6.70;;;12.70;99.90;;;;;;5065233;28;20194;-77
2022/09/30 08:34:12;;;;;;;7.73;6.90;;;12.70;99.90;;;;;;5057523;28;20561;-78
2022/09/30 08:36:39;;;;;;;7.63;6.83;;;12.80;99.90;;;;;;5060424;28;20223;-78
2022/09/30 08:39:06;;;;;;;7.83;7.13;;;12.70;99.90;;;;;;5065318;28;20253;-78
2022/09/30 08:41:56;;;;;;;7.93;7.17;;;12.60;99.90;;;;;;5063407;28;20194;-78
2022/09/30 08:44:39;;;;;;;7.23;6.53;;;12.60;99.90;;;;;;5055195;28;20213;-78
2022/09/30 08:47:21;;;;;;;7.90;7.20;;;12.60;99.90;;;;;;5071006;28;20226;-78
2022/09/30 08:49:56;;;;;;;8.53;7.80;;;12.60;99.90;;;;;;5059998;28;20202;-77
2022/09/30 08:52:27;;;;;;;7.50;6.80;;;12.50;99.90;;;;;;5065374;28;20200;-77
2022/09/30 08:54:56;;;;;;;7.87;7.00;;;12.60;99.90;;;;;;5065533;28;20203;-78
2022/09/30 08:57:35;;;;;;;8.43;7.73;;;12.70;99.90;;;;;;5065649;28;20757;-78
2022/09/30 09:00:08;;;;;;;8.93;8.10;;;12.60;99.90;;;;;;5055850;28;20226;-78
2022/09/30 09:02:44;;;;;;;9.57;8.87;;;12.60;99.90;;;;;;5059322;28;20308;-78
2022/09/30 09:05:20;;;;;;;9.00;8.20;;;12.80;99.90;;;;;;5057802;28;20206;-77
2022/09/30 09:07:53;;;;;;;8.70;7.90;;;13.10;99.90;;;;;;5059714;28;20221;-78
2022/09/30 09:10:30;;;;;;;11.20;8.60;;;13.50;99.90;;;;;;5066049;28;20194;-78
2022/09/30 09:13:05;;;;;;;14.70;13.50;;;13.80;99.90;;;;;;5064148;28;20202;-78
2022/09/30 09:15:48;;;;;;;9.33;7.23;;;14.20;99.90;;;;;;5061240;28;20193;-78
2022/09/30 09:18:34;;;;;;;8.97;8.07;;;14.80;99.90;;;;;;5067727;28;20226;-78
2022/09/30 09:21:14;;;;;;;7.63;6.23;;;15.00;99.90;;;;;;5066254;28;20194;-77
2022/09/30 09:23:41;;;;;;;8.60;6.27;;;15.20;99.90;;;;;;5057246;28;20472;-78
2022/09/30 09:26:11;;;;;;;7.47;6.07;;;15.50;99.90;;;;;;5061098;28;20213;-78
2022/09/30 09:28:45;;;;;;;8.00;6.47;;;15.80;99.90;;;;;;5053502;28;20612;-75
2022/09/30 09:31:16;;;;;;;7.70;6.97;;;15.80;99.90;;;;;;5055626;28;20208;-77
2022/09/30 09:33:44;;;;;;;9.40;8.43;;;15.90;99.90;;;;;;5065475;28;20229;-77
2022/09/30 09:36:23;;;;;;;10.83;9.73;;;15.70;99.90;;;;;;5057211;28;20209;-77
2022/09/30 09:39:15;;;;;;;8.27;7.47;;;15.50;99.90;;;;;;5060595;28;20214;-77
2022/09/30 09:41:48;;;;;;;7.80;7.00;;;15.40;99.90;;;;;;5061473;28;20197;-77
2022/09/30 09:44:23;;;;;;;6.83;5.90;;;15.60;99.90;;;;;;5049504;28;20724;-77
2022/09/30 09:47:00;;;;;;;8.40;6.90;;;15.80;99.90;;;;;;5068358;28;20230;-78
2022/09/30 09:49:30;;;;;;;8.27;6.67;;;15.50;99.90;;;;;;5054671;28;20206;-78
2022/09/30 09:52:15;;;;;;;5.90;5.30;;;15.00;99.90;;;;;;5052986;28;20210;-78
2022/09/30 09:54:44;;;;;;;6.13;5.43;;;15.30;99.90;;;;;;5055876;28;20205;-77
2022/09/30 09:57:13;;;;;;;5.67;4.80;;;15.50;99.90;;;;;;5064822;28;20214;-78
2022/09/30 09:59:56;;;;;;;5.80;5.20;;;15.50;99.90;;;;;;5057121;28;20209;-78
2022/09/30 10:02:27;;;;;;;6.57;5.13;;;15.90;99.90;;;;;;5057579;28;20292;-77
2022/09/30 10:04:59;;;;;;;6.13;5.30;;;15.90;99.90;;;;;;5066774;28;20198;-79
2022/09/30 10:07:28;;;;;;;6.47;5.83;;;16.10;99.90;;;;;;5053522;28;20692;-79
2022/09/30 10:10:08;;;;;;;7.33;6.17;;;16.10;99.90;;;;;;5051495;28;20268;-76
2022/09/30 10:12:35;;;;;;;9.13;7.80;;;15.80;99.90;;;;;;5055367;28;20194;-78
2022/09/30 10:15:19;;;;;;;8.77;7.97;;;15.60;99.90;;;;;;5052512;28;20205;-78
2022/09/30 10:17:52;;;;;;;9.90;9.07;;;15.40;99.90;;;;;;5051615;28;20210;-76
2022/09/30 10:20:27;;;;;;;9.80;9.00;;;15.30;99.90;;;;;;5061926;28;20237;-77
2022/09/30 10:23:02;;;;;;;10.00;9.20;;;15.00;99.90;;;;;;5064214;28;20253;-78
2022/09/30 10:25:29;;;;;;;9.23;8.43;;;15.10;99.90;;;;;;5068087;28;20217;-78
2022/09/30 10:27:58;;;;;;;5.80;5.30;;;15.20;99.90;;;;;;5063688;28;20222;-77
2022/09/30 10:30:49;;;;;;;5.97;5.47;;;15.30;99.90;;;;;;5066325;28;20201;-78
2022/09/30 10:33:24;;;;;;;6.27;5.77;;;15.30;99.90;;;;;;5058203;28;20209;-78
2022/09/30 10:35:57;;;;;;;6.40;5.80;;;15.20;99.90;;;;;;5068034;28;20204;-77
2022/09/30 10:38:28;;;;;;;6.63;6.10;;;15.30;99.90;;;;;;5066130;28;20269;-78
2022/09/30 10:40:56;;;;;;;6.33;5.83;;;15.30;99.90;;;;;;5066576;28;20222;-78
2022/09/30 10:43:26;;;;;;;7.47;6.20;;;15.30;99.90;;;;;;5050620;28;20623;-77
2022/09/30 10:45:58;;;;;;;6.93;6.27;;;15.40;99.90;;;;;;5064191;28;20250;-78
2022/09/30 10:48:30;;;;;;;7.37;6.20;;;15.30;99.90;;;;;;5066824;28;20277;-77
2022/09/30 10:50:57;;;;;;;7.97;7.20;;;15.20;99.90;;;;;;5056509;28;20660;-78
2022/09/30 10:53:28;;;;;;;6.93;6.23;;;15.10;99.90;;;;;;5052913;28;20205;-78
2022/09/30 10:55:56;;;;;;;7.03;6.33;;;15.10;99.90;;;;;;5060289;28;20220;-78
2022/09/30 10:58:29;;;;;;;8.17;7.37;;;15.20;99.90;;;;;;5058346;28;20701;-78
2022/09/30 11:01:03;;;;;;;7.23;6.53;;;15.20;99.90;;;;;;5069164;28;20616;-78
2022/09/30 11:03:36;;;;;;;8.53;7.73;;;15.20;99.90;;;;;;5055348;28;20205;-78
2022/09/30 11:06:05;;;;;;;10.53;9.63;;;15.30;99.90;;;;;;5051297;28;20212;-78
2022/09/30 11:08:39;;;;;;;11.80;10.90;;;15.30;99.90;;;;;;5056139;28;20228;-78
2022/09/30 11:11:13;;;;;;;11.63;10.73;;;14.90;99.90;;;;;;5063320;28;20262;-77
2022/09/30 11:13:43;;;;;;;11.50;10.70;;;14.80;99.90;;;;;;5057421;28;20638;-77
2022/09/30 11:16:19;;;;;;;10.73;9.93;;;14.80;99.90;;;;;;5055605;28;20699;-78
2022/09/30 11:18:53;;;;;;;11.23;10.33;;;14.80;99.90;;;;;;5061644;28;20676;-77
2022/09/30 11:21:26;;;;;;;10.73;9.83;;;14.80;99.90;;;;;;5066384;28;20200;-78
2022/09/30 11:23:57;;;;;;;9.53;8.90;;;14.90;99.90;;;;;;5062307;28;20201;-78
2022/09/30 11:26:33;;;;;;;9.90;9.20;;;14.80;99.90;;;;;;5058898;28;20223;-78
2022/09/30 11:29:33;;;;;;;10.30;9.50;;;14.80;99.90;;;;;;5053989;28;20205;-78
2022/09/30 11:32:12;;;;;;;9.40;8.80;;;14.80;99.90;;;;;;5061091;28;20204;-78
2022/09/30 11:34:52;;;;;;;9.37;8.67;;;15.00;99.90;;;;;;5056701;28;20201;-78
2022/09/30 11:37:34;;;;;;;9.53;8.57;;;15.10;99.90;;;;;;5066047;28;20272;-77
2022/09/30 11:40:33;;;;;;;8.97;8.30;;;15.10;99.90;;;;;;5065690;28;20213;-78
2022/09/30 11:43:08;;;;;;;9.03;8.37;;;15.00;99.90;;;;;;5038641;28;20216;-77
2022/09/30 11:45:49;;;;;;;8.30;7.80;;;14.90;99.90;;;;;;5049828;28;20203;-78
2022/09/30 11:48:33;;;;;;;8.27;7.67;;;15.00;99.90;;;;;;5077709;22;20728;-81
2022/09/30 11:51:14;;;;;;;8.30;7.60;;;14.90;99.90;;;;;;5037346;28;20192;-85
2022/09/30 11:53:51;;;;;;;8.37;7.77;;;14.90;99.90;;;;;;5046542;28;20199;-85
2022/09/30 11:56:32;;;;;;;7.67;7.03;;;15.00;99.90;;;;;;5040957;28;20199;-82
2022/09/30 11:59:02;;;;;;;8.35;7.65;;;15.00;99.90;;;;;;5040844;28;20498;-81
2022/09/30 12:01:32;;;;;;;7.70;7.10;;;15.00;99.90;;;;;;5036016;28;20751;-81
2022/09/30 12:04:06;;;;;;;7.73;7.20;;;15.10;99.90;;;;;;5044764;28;20205;-81
2022/09/30 12:06:36;;;;;;;7.10;6.60;;;15.10;99.90;;;;;;5031025;28;20568;-80
2022/09/30 12:09:14;;;;;;;7.90;7.10;;;15.00;99.90;;;;;;5029916;28;20233;-81
2022/09/30 12:11:49;;;;;;;7.53;7.03;;;14.90;99.90;;;;;;5035022;28;20211;-81
2022/09/30 12:14:21;;;;;;;7.70;7.10;;;14.80;99.90;;;;;;5037479;28;20276;-81
2022/09/30 12:16:50;;;;;;;7.57;7.07;;;14.70;99.90;;;;;;5040689;28;20189;-80
2022/09/30 12:19:24;;;;;;;7.50;6.90;;;14.70;99.90;;;;;;5040945;28;20298;-80
2022/09/30 12:21:56;;;;;;;6.93;6.43;;;14.80;99.90;;;;;;5041544;28;20206;-80
2022/09/30 12:24:29;;;;;;;12.37;6.90;;;14.90;99.90;;;;;;5036579;28;20203;-80
2022/09/30 12:26:57;;;;;;;6.83;6.33;;;15.00;99.90;;;;;;5043669;28;20600;-81
2022/09/30 12:32:49;;;;;;;7.27;6.67;;;15.20;99.90;;;;;;5034535;28;20252;-81
2022/09/30 12:35:38;;;;;;;6.67;6.17;;;15.30;99.90;;;;;;5041612;28;20201;-81
2022/09/30 12:38:23;;;;;;;7.77;7.20;;;15.40;99.90;;;;;;5045698;28;20222;-81
2022/09/30 12:41:02;;;;;;;8.27;7.67;;;15.40;99.90;;;;;;5044691;28;20718;-81
2022/09/30 12:44:03;;;;;;;8.73;8.17;;;15.40;99.90;;;;;;5032262;28;20695;-80
2022/09/30 12:46:52;;;;;;;9.07;8.47;;;15.30;99.90;;;;;;5032614;28;20195;-81
2022/09/30 12:49:23;;;;;;;8.97;8.37;;;15.30;99.90;;;;;;5029326;28;20202;-80
2022/09/30 12:51:56;;;;;;;8.60;8.10;;;15.30;99.90;;;;;;5045250;28;20220;-81
2022/09/30 12:54:27;;;;;;;9.07;8.37;;;15.60;99.90;;;;;;5034747;28;21139;-80
2022/09/30 12:56:55;;;;;;;8.40;7.80;;;15.80;99.90;;;;;;5042991;28;20238;-80
2022/09/30 12:59:26;;;;;;;8.97;8.27;;;16.00;99.90;;;;;;5043043;28;20202;-80
2022/09/30 13:01:54;;;;;;;8.83;8.20;;;16.10;99.90;;;;;;5038841;28;20187;-80
2022/09/30 13:04:33;;;;;;;7.67;6.97;;;16.20;99.90;;;;;;5045376;28;20499;-80
2022/09/30 13:07:18;;;;;;;7.70;7.00;;;16.50;99.90;;;;;;5042972;28;20633;-80